Time;durP1;ratioP1;P1;durP2;ratioP2;P2;SDS_P1;SDS_P2;PMS_P1;PMS_P2;Temp;Humidity;BMP_temperature;BMP_pressure;BME280_temperature;BME280_humidity;BME280_pressure;Samples;Min_cycle;Max_cycle;Signal;HPM_P1;HPM_P2
2023/03/30 00:00:44;;;;;;;14.25;8.32;;;;;;;;;;4992256;28;20040;-76
2023/03/30 00:03:10;;;;;;;15.93;8.60;;;;;;;;;;4991206;28;20359;-76
2023/03/30 00:05:36;;;;;;;17.60;8.15;;;;;;;;;;4993479;28;20028;-76
2023/03/30 00:08:02;;;;;;;17.70;7.82;;;;;;;;;;5001279;28;20038;-76
2023/03/30 00:10:31;;;;;;;15.95;7.80;;;;;;;;;;4994893;28;20030;-76
2023/03/30 00:12:57;;;;;;;13.93;7.60;;;;;;;;;;4991551;28;20516;-76
2023/03/30 00:15:23;;;;;;;16.45;8.27;;;;;;;;;;4994936;28;20023;-76
2023/03/30 00:17:50;;;;;;;;;;;;;;;;;;4998889;28;20485;-76
2023/03/30 00:20:16;;;;;;;13.07;7.93;;;;;;;;;;4995718;28;19909;-76
2023/03/30 00:22:41;;;;;;;18.25;8.77;;;;;;;;;;4979546;28;20376;-76
2023/03/30 00:25:07;;;;;;;14.60;7.63;;;;;;;;;;4994976;28;20157;-75
2023/03/30 00:27:33;;;;;;;;;;;;;;;;;;5000531;28;20758;-76
2023/03/30 00:29:58;;;;;;;17.77;8.98;;;;;;;;;;4995050;28;19960;-76
2023/03/30 00:32:24;;;;;;;14.48;7.78;;;;;;;;;;4998465;28;20038;-76
2023/03/30 00:34:49;;;;;;;15.32;7.72;;;;;;;;;;4995014;28;20163;-76
2023/03/30 00:37:15;;;;;;;13.45;8.07;;;;;;;;;;4994227;28;20038;-76
2023/03/30 00:39:40;;;;;;;13.85;7.22;;;;;;;;;;4995757;28;20031;-76
2023/03/30 00:42:08;;;;;;;14.50;7.85;;;;;;;;;;5000658;28;20038;-76
2023/03/30 00:44:52;;;;;;;13.57;6.97;;;;;;;;;;4995324;28;20401;-76
2023/03/30 00:47:18;;;;;;;13.25;7.18;;;;;;;;;;4995263;28;20038;-76
2023/03/30 00:49:44;;;;;;;16.80;7.82;;;;;;;;;;4996660;28;20045;-76
2023/03/30 00:52:09;;;;;;;11.15;6.50;;;;;;;;;;4979475;28;20034;-76
2023/03/30 00:54:35;;;;;;;14.70;7.85;;;;;;;;;;4999426;28;20054;-76
2023/03/30 00:57:01;;;;;;;12.88;7.22;;;;;;;;;;5000449;28;20043;-76
2023/03/30 00:59:26;;;;;;;13.35;7.43;;;;;;;;;;4973222;28;20176;-76
2023/03/30 01:01:52;;;;;;;15.30;8.40;;;;;;;;;;4991468;28;20831;-76
2023/03/30 01:04:17;;;;;;;13.50;7.60;;;;;;;;;;4973181;28;20048;-76
2023/03/30 01:06:45;;;;;;;13.55;6.25;;;;;;;;;;4991091;28;20113;-76
2023/03/30 01:09:14;;;;;;;12.88;7.25;;;;;;;;;;4974010;28;20559;-76
2023/03/30 01:11:40;;;;;;;12.68;7.07;;;;;;;;;;4986409;28;20042;-76
2023/03/30 01:14:05;;;;;;;13.52;7.38;;;;;;;;;;4975144;28;20033;-76
2023/03/30 01:16:46;;;;;;;11.50;6.78;;;;;;;;;;4973434;28;20401;-76
2023/03/30 01:19:14;;;;;;;14.75;6.90;;;;;;;;;;4992442;28;20035;-76
2023/03/30 01:21:58;;;;;;;11.10;6.55;;;;;;;;;;4986370;28;20045;-76
2023/03/30 01:24:30;;;;;;;10.90;5.55;;;;;;;;;;4973222;28;20405;-76
2023/03/30 01:26:57;;;;;;;10.63;5.53;;;;;;;;;;4992578;28;20070;-76
2023/03/30 01:29:38;;;;;;;8.93;5.22;;;;;;;;;;4994664;28;20135;-75
2023/03/30 01:32:19;;;;;;;11.63;5.38;;;;;;;;;;4990135;28;20382;-75
2023/03/30 01:34:48;;;;;;;10.43;5.70;;;;;;;;;;4990784;28;20077;-76
2023/03/30 01:37:31;;;;;;;8.68;4.80;;;;;;;;;;4997924;28;20038;-75
2023/03/30 01:39:56;;;;;;;9.48;5.50;;;;;;;;;;4979128;28;20457;-75
2023/03/30 01:42:37;;;;;;;10.27;5.60;;;;;;;;;;4977395;28;20058;-75
2023/03/30 01:45:02;;;;;;;12.13;6.10;;;;;;;;;;4994577;28;20057;-75
2023/03/30 01:47:36;;;;;;;10.65;6.28;;;;;;;;;;4997899;28;20105;-75
2023/03/30 01:50:08;;;;;;;9.50;5.63;;;;;;;;;;4978983;28;20045;-75
2023/03/30 01:52:54;;;;;;;11.65;6.40;;;;;;;;;;4978879;28;20026;-74
2023/03/30 01:55:23;;;;;;;12.10;5.90;;;;;;;;;;4997735;28;20033;-75
2023/03/30 01:57:50;;;;;;;11.38;6.15;;;;;;;;;;4995286;28;20034;-75
2023/03/30 02:00:17;;;;;;;10.95;6.03;;;;;;;;;;4997441;28;20065;-75
2023/03/30 02:02:47;;;;;;;13.50;5.72;;;;;;;;;;4994928;28;20026;-75
2023/03/30 02:05:16;;;;;;;10.80;6.07;;;;;;;;;;4997517;28;20041;-75
2023/03/30 02:07:42;;;;;;;10.63;5.72;;;;;;;;;;4996327;28;20048;-75
2023/03/30 02:10:08;;;;;;;12.68;5.65;;;;;;;;;;4994536;28;20031;-75
2023/03/30 02:12:33;;;;;;;9.57;5.57;;;;;;;;;;4979252;28;20018;-75
2023/03/30 02:15:00;;;;;;;11.75;5.60;;;;;;;;;;4981760;28;20393;-75
2023/03/30 02:17:27;;;;;;;10.43;5.47;;;;;;;;;;4976760;28;20037;-77
2023/03/30 02:19:56;;;;;;;8.10;4.50;;;;;;;;;;4993497;28;20035;-74
2023/03/30 02:22:22;;;;;;;11.18;5.25;;;;;;;;;;4993915;28;20141;-78
2023/03/30 02:24:48;;;;;;;7.85;4.90;;;;;;;;;;4991238;28;20124;-77
2023/03/30 02:27:16;;;;;;;8.05;4.78;;;;;;;;;;4999907;28;20034;-77
2023/03/30 02:29:42;;;;;;;6.93;4.63;;;;;;;;;;4992156;28;20069;-77
2023/03/30 02:32:13;;;;;;;7.35;4.38;;;;;;;;;;4992011;28;20121;-76
2023/03/30 02:34:51;;;;;;;9.18;5.60;;;;;;;;;;4972707;28;20047;-77
2023/03/30 02:37:23;;;;;;;8.48;5.05;;;;;;;;;;4977716;28;20132;-76
2023/03/30 02:40:11;;;;;;;6.63;4.40;;;;;;;;;;4976273;28;20045;-77
2023/03/30 02:42:42;;;;;;;8.77;4.57;;;;;;;;;;4976759;28;20038;-77
2023/03/30 02:45:26;;;;;;;8.70;4.63;;;;;;;;;;4991873;28;20042;-76
2023/03/30 02:47:52;;;;;;;6.57;4.25;;;;;;;;;;5020777;28;20034;-75
2023/03/30 02:50:22;;;;;;;7.78;4.72;;;;;;;;;;4979676;28;20028;-75
2023/03/30 02:52:51;;;;;;;7.70;4.40;;;;;;;;;;4978372;28;20035;-74
2023/03/30 02:55:19;;;;;;;6.88;4.57;;;;;;;;;;4979402;28;20030;-75
2023/03/30 02:58:24;;;;;;;6.38;4.68;;;;;;;;;;4987275;28;20046;-75
2023/03/30 03:01:03;;;;;;;9.15;4.55;;;;;;;;;;5008229;28;20038;-75
2023/03/30 03:03:43;;;;;;;8.07;4.47;;;;;;;;;;4985965;28;20033;-75
2023/03/30 03:06:08;;;;;;;8.98;4.63;;;;;;;;;;4996186;28;20145;-75
2023/03/30 03:08:38;;;;;;;7.80;4.90;;;;;;;;;;4999500;28;20477;-75
2023/03/30 03:11:06;;;;;;;8.65;4.78;;;;;;;;;;4974989;28;20026;-75
2023/03/30 03:13:35;;;;;;;7.28;4.63;;;;;;;;;;4973323;28;20014;-76
2023/03/30 03:16:03;;;;;;;7.10;4.63;;;;;;;;;;4975522;28;20501;-77
2023/03/30 03:18:30;;;;;;;6.47;4.28;;;;;;;;;;4991100;28;20030;-77
2023/03/30 03:20:56;;;;;;;6.53;4.18;;;;;;;;;;4972120;28;20089;-75
2023/03/30 03:23:22;;;;;;;8.20;4.30;;;;;;;;;;4996334;28;20050;-75
2023/03/30 03:25:50;;;;;;;6.43;3.55;;;;;;;;;;4990498;28;20050;-78
2023/03/30 03:28:18;;;;;;;4.00;2.95;;;;;;;;;;4991256;28;20089;-77
2023/03/30 03:30:49;;;;;;;4.57;3.00;;;;;;;;;;4975315;28;20477;-77
2023/03/30 03:33:19;;;;;;;6.40;3.10;;;;;;;;;;4989908;28;20517;-77
2023/03/30 03:35:52;;;;;;;4.55;2.92;;;;;;;;;;4990905;28;20712;-77
2023/03/30 03:38:23;;;;;;;4.65;2.70;;;;;;;;;;4985279;28;20402;-77
2023/03/30 03:40:51;;;;;;;4.63;2.90;;;;;;;;;;4980264;28;20477;-76
2023/03/30 03:43:17;;;;;;;;;;;;;;;;;;4987239;28;20524;-76
2023/03/30 03:45:43;;;;;;;4.03;2.80;;;;;;;;;;5013970;28;20051;-76
2023/03/30 03:48:09;;;;;;;4.15;2.60;;;;;;;;;;4990544;28;20061;-77
2023/03/30 03:50:48;;;;;;;5.35;2.95;;;;;;;;;;4995815;28;20021;-76
2023/03/30 03:53:13;;;;;;;3.95;2.80;;;;;;;;;;4974863;28;20378;-76
2023/03/30 03:55:40;;;;;;;9.43;3.35;;;;;;;;;;4997906;28;20026;-76
2023/03/30 03:58:06;;;;;;;5.38;2.97;;;;;;;;;;4997853;28;20493;-76
2023/03/30 04:00:32;;;;;;;6.28;3.42;;;;;;;;;;5000882;28;20404;-77
2023/03/30 04:02:58;;;;;;;5.40;3.22;;;;;;;;;;4977906;28;20062;-77
2023/03/30 04:05:24;;;;;;;5.38;3.70;;;;;;;;;;5002169;28;20103;-77
2023/03/30 04:07:52;;;;;;;5.05;3.40;;;;;;;;;;4986026;28;20055;-77
2023/03/30 04:10:18;;;;;;;7.22;4.03;;;;;;;;;;5004638;28;20033;-76
2023/03/30 04:12:54;;;;;;;9.27;4.73;;;;;;;;;;5000353;28;20104;-76
2023/03/30 04:15:48;;;;;;;10.88;5.30;;;;;;;;;;4990160;28;20307;-76
2023/03/30 04:18:14;;;;;;;6.30;3.92;;;;;;;;;;5004748;28;20085;-77
2023/03/30 04:21:05;;;;;;;10.15;5.28;;;;;;;;;;4988386;28;20042;-76
2023/03/30 04:23:49;;;;;;;5.88;3.83;;;;;;;;;;4983079;28;20201;-76
2023/03/30 04:26:18;;;;;;;8.93;5.05;;;;;;;;;;4991283;28;20041;-76
2023/03/30 04:28:43;;;;;;;8.82;5.85;;;;;;;;;;4999271;28;20038;-76
2023/03/30 04:31:33;;;;;;;10.27;7.68;;;;;;;;;;4986515;28;20068;-76
2023/03/30 04:34:03;;;;;;;14.05;8.90;;;;;;;;;;4991227;28;20145;-75
2023/03/30 04:36:56;;;;;;;17.90;8.73;;;;;;;;;;4982019;28;20088;-76
2023/03/30 04:39:32;;;;;;;25.10;8.93;;;;;;;;;;4987162;28;20030;-76
2023/03/30 04:42:18;;;;;;;14.80;8.63;;;;;;;;;;4991463;28;20524;-75
2023/03/30 04:45:07;;;;;;;11.98;8.38;;;;;;;;;;4986901;28;20463;-76
2023/03/30 04:47:53;;;;;;;12.88;7.95;;;;;;;;;;4989736;28;20042;-76
2023/03/30 04:50:42;;;;;;;10.73;6.63;;;;;;;;;;4988473;28;20092;-76
2023/03/30 04:53:27;;;;;;;7.80;5.63;;;;;;;;;;4992768;28;20026;-76
2023/03/30 04:56:16;;;;;;;7.55;5.72;;;;;;;;;;4983539;28;20096;-76
2023/03/30 04:58:50;;;;;;;6.45;5.45;;;;;;;;;;4990702;28;20081;-76
2023/03/30 05:01:36;;;;;;;6.35;5.10;;;;;;;;;;4991297;28;20100;-76
2023/03/30 05:04:01;;;;;;;6.82;5.10;;;;;;;;;;4991145;28;20505;-75
2023/03/30 05:06:48;;;;;;;9.80;5.80;;;;;;;;;;4992300;28;20037;-76
2023/03/30 05:09:14;;;;;;;8.63;5.20;;;;;;;;;;4993626;28;20043;-77
2023/03/30 05:12:03;;;;;;;6.47;4.78;;;;;;;;;;4990416;28;20064;-76
2023/03/30 05:14:36;;;;;;;5.53;4.90;;;;;;;;;;4990390;28;20037;-78
2023/03/30 05:17:20;;;;;;;5.82;4.75;;;;;;;;;;5002262;28;20049;-76
2023/03/30 05:20:08;;;;;;;7.57;4.57;;;;;;;;;;4986259;28;20042;-78
2023/03/30 05:22:53;;;;;;;5.53;4.00;;;;;;;;;;4990309;28;20065;-77
2023/03/30 05:25:34;;;;;;;7.07;4.28;;;;;;;;;;5003507;28;20038;-77
2023/03/30 05:28:07;;;;;;;6.75;4.25;;;;;;;;;;5010474;28;20036;-77
2023/03/30 05:30:52;;;;;;;8.48;3.85;;;;;;;;;;5008347;28;20038;-78
2023/03/30 05:33:36;;;;;;;6.15;3.10;;;;;;;;;;5011900;28;20100;-77
2023/03/30 05:36:20;;;;;;;4.30;3.05;;;;;;;;;;4984871;28;20172;-77
2023/03/30 05:39:04;;;;;;;5.15;3.90;;;;;;;;;;4979205;28;20042;-78
2023/03/30 05:41:48;;;;;;;10.77;3.50;;;;;;;;;;4994243;28;20086;-77
2023/03/30 05:44:19;;;;;;;7.63;3.70;;;;;;;;;;4998807;28;20056;-77
2023/03/30 05:47:23;;;;;;;5.55;2.55;;;;;;;;;;4994228;28;20109;-77
2023/03/30 05:50:03;;;;;;;9.43;2.65;;;;;;;;;;4985520;28;20559;-77
2023/03/30 05:52:35;;;;;;;8.73;2.90;;;;;;;;;;4985549;28;20034;-76
2023/03/30 05:55:16;;;;;;;5.43;2.60;;;;;;;;;;4979214;28;20030;-76
2023/03/30 05:58:08;;;;;;;6.10;2.47;;;;;;;;;;4993730;28;20039;-76
2023/03/30 06:00:56;;;;;;;4.78;2.67;;;;;;;;;;4994091;28;20512;-78
2023/03/30 06:03:30;;;;;;;3.97;2.53;;;;;;;;;;4995253;28;20073;-78
2023/03/30 06:05:56;;;;;;;3.45;2.30;;;;;;;;;;4994108;28;20073;-76
2023/03/30 06:08:21;;;;;;;5.82;2.53;;;;;;;;;;4996128;28;20031;-79
2023/03/30 06:10:47;;;;;;;;;;;;;;;;;;4994094;28;20085;-77
2023/03/30 06:13:13;;;;;;;4.00;2.05;;;;;;;;;;4994037;28;19941;-78
2023/03/30 06:15:59;;;;;;;4.78;2.47;;;;;;;;;;4993935;28;20065;-78
2023/03/30 06:18:26;;;;;;;5.18;2.30;;;;;;;;;;4993024;28;20041;-76
2023/03/30 06:21:07;;;;;;;3.97;2.85;;;;;;;;;;4988756;28;20149;-78
2023/03/30 06:23:44;;;;;;;4.65;2.80;;;;;;;;;;4973527;28;20088;-76
2023/03/30 06:26:16;;;;;;;7.00;2.80;;;;;;;;;;4995595;28;20036;-79
2023/03/30 06:28:42;;;;;;;8.88;3.55;;;;;;;;;;4992960;28;20038;-79
2023/03/30 06:31:07;;;;;;;;;;;;;;;;;;4993437;28;20132;-78
2023/03/30 06:33:33;;;;;;;3.88;2.75;;;;;;;;;;4992868;28;20016;-77
2023/03/30 06:36:01;;;;;;;4.90;2.55;;;;;;;;;;4992002;28;20026;-79
2023/03/30 06:38:27;;;;;;;;;;;;;;;;;;4993115;28;20109;-78
2023/03/30 06:40:54;;;;;;;4.90;2.10;;;;;;;;;;4992614;28;19910;-77
2023/03/30 06:43:23;;;;;;;10.13;2.42;;;;;;;;;;4992724;28;20129;-77
2023/03/30 06:46:12;;;;;;;3.25;1.73;;;;;;;;;;4984223;28;20421;-77
2023/03/30 06:48:42;;;;;;;4.10;1.60;;;;;;;;;;4992926;28;20125;-77
2023/03/30 06:51:26;;;;;;;3.40;1.70;;;;;;;;;;4991990;28;20532;-77
2023/03/30 06:53:54;;;;;;;4.38;1.90;;;;;;;;;;4993538;28;20038;-79
2023/03/30 06:56:20;;;;;;;5.30;2.25;;;;;;;;;;4992749;28;20177;-78
2023/03/30 06:59:01;;;;;;;6.88;2.70;;;;;;;;;;4992452;28;20093;-78
2023/03/30 07:01:28;;;;;;;5.05;2.58;;;;;;;;;;4975942;28;20135;-77
2023/03/30 07:04:19;;;;;;;4.60;2.30;;;;;;;;;;4988654;28;20121;-77
2023/03/30 07:07:03;;;;;;;4.93;2.10;;;;;;;;;;4993529;28;20101;-78
2023/03/30 07:09:29;;;;;;;5.70;2.97;;;;;;;;;;4991609;28;20030;-77
2023/03/30 07:11:55;;;;;;;;;;;;;;;;;;4973392;28;20149;-77
2023/03/30 07:14:20;;;;;;;8.85;3.13;;;;;;;;;;5021939;28;20421;-77
2023/03/30 07:16:47;;;;;;;4.68;3.00;;;;;;;;;;4993130;28;20049;-78
2023/03/30 07:19:37;;;;;;;4.20;2.83;;;;;;;;;;5000263;28;20090;-78
2023/03/30 07:22:03;;;;;;;8.30;3.00;;;;;;;;;;4981837;28;20412;-78
2023/03/30 07:24:30;;;;;;;7.97;3.20;;;;;;;;;;4997850;28;20101;-77
2023/03/30 07:26:56;;;;;;;12.90;3.72;;;;;;;;;;4993869;28;20045;-77
2023/03/30 07:29:22;;;;;;;10.65;3.42;;;;;;;;;;4995895;28;20149;-78
2023/03/30 07:31:52;;;;;;;7.97;3.20;;;;;;;;;;4991405;28;20034;-76
2023/03/30 07:34:19;;;;;;;7.70;3.50;;;;;;;;;;4995191;28;20128;-77
2023/03/30 07:36:50;;;;;;;8.23;3.97;;;;;;;;;;4978557;28;20054;-77
2023/03/30 07:39:16;;;;;;;7.55;5.30;;;;;;;;;;4995285;28;20076;-77
2023/03/30 07:41:44;;;;;;;12.48;5.45;;;;;;;;;;4974407;28;20079;-78
2023/03/30 07:44:12;;;;;;;10.02;5.13;;;;;;;;;;4998152;28;20516;-77
2023/03/30 07:46:37;;;;;;;7.55;3.97;;;;;;;;;;4995788;28;20109;-77
2023/03/30 07:49:03;;;;;;;9.77;3.80;;;;;;;;;;4982828;28;20188;-78
2023/03/30 07:51:30;;;;;;;13.10;3.78;;;;;;;;;;4977140;28;20027;-77
2023/03/30 07:54:18;;;;;;;9.27;3.30;;;;;;;;;;4988598;28;20488;-78
2023/03/30 07:57:07;;;;;;;8.52;3.03;;;;;;;;;;5000891;28;20041;-77
2023/03/30 07:59:32;;;;;;;6.13;2.78;;;;;;;;;;4982833;28;20037;-77
2023/03/30 08:02:11;;;;;;;5.47;3.05;;;;;;;;;;4987458;28;20026;-77
2023/03/30 08:04:43;;;;;;;6.88;2.78;;;;;;;;;;4975820;28;20041;-77
2023/03/30 08:07:10;;;;;;;4.45;2.80;;;;;;;;;;4981233;28;20029;-76
2023/03/30 08:09:35;;;;;;;;;;;;;;;;;;4982040;28;20022;-77
2023/03/30 08:12:01;;;;;;;8.27;4.70;;;;;;;;;;5005492;28;19913;-77
2023/03/30 08:14:26;;;;;;;9.90;3.55;;;;;;;;;;4998715;28;20765;-77
2023/03/30 08:16:52;;;;;;;11.05;3.40;;;;;;;;;;5003792;28;20038;-78
2023/03/30 08:19:18;;;;;;;4.57;2.50;;;;;;;;;;4974556;28;20076;-77
2023/03/30 08:21:44;;;;;;;3.95;2.38;;;;;;;;;;4988912;28;20041;-77
2023/03/30 08:24:09;;;;;;;5.40;2.45;;;;;;;;;;4992357;28;20034;-79
2023/03/30 08:26:35;;;;;;;6.68;3.30;;;;;;;;;;4992078;28;20084;-78
2023/03/30 08:29:01;;;;;;;9.05;3.17;;;;;;;;;;4991167;28;20486;-78
2023/03/30 08:31:26;;;;;;;8.95;2.63;;;;;;;;;;4991096;28;20536;-77
2023/03/30 08:33:51;;;;;;;10.10;2.90;;;;;;;;;;4990463;28;20046;-78
2023/03/30 08:36:19;;;;;;;9.18;2.40;;;;;;;;;;4990982;28;20030;-78
2023/03/30 08:38:45;;;;;;;6.53;2.58;;;;;;;;;;4990797;28;20030;-77
2023/03/30 08:41:28;;;;;;;11.52;2.90;;;;;;;;;;4992489;28;20616;-78
2023/03/30 08:44:01;;;;;;;8.38;2.85;;;;;;;;;;4992391;28;20030;-78
2023/03/30 08:46:26;;;;;;;6.30;2.58;;;;;;;;;;4978362;28;20038;-78
2023/03/30 08:48:52;;;;;;;4.78;1.58;;;;;;;;;;4996378;28;20085;-78
2023/03/30 08:51:20;;;;;;;3.88;1.60;;;;;;;;;;4978942;28;20456;-78
2023/03/30 08:53:52;;;;;;;10.93;1.90;;;;;;;;;;4979894;28;20023;-77
2023/03/30 08:56:19;;;;;;;6.85;2.28;;;;;;;;;;4995151;28;20104;-79
2023/03/30 08:58:57;;;;;;;6.18;2.20;;;;;;;;;;4994921;28;20072;-79
2023/03/30 09:01:23;;;;;;;5.60;2.50;;;;;;;;;;4995723;28;20034;-78
2023/03/30 09:04:01;;;;;;;6.75;2.70;;;;;;;;;;4995570;28;20022;-76
2023/03/30 09:06:30;;;;;;;6.68;1.90;;;;;;;;;;4994559;28;20053;-78
2023/03/30 09:08:55;;;;;;;2.08;1.25;;;;;;;;;;4978636;28;20441;-79
2023/03/30 09:11:28;;;;;;;5.85;1.88;;;;;;;;;;4977850;28;20093;-79
2023/03/30 09:13:54;;;;;;;5.32;1.30;;;;;;;;;;4978604;28;20046;-78
2023/03/30 09:16:37;;;;;;;7.28;1.52;;;;;;;;;;4995870;28;20022;-78
2023/03/30 09:19:03;;;;;;;6.97;1.48;;;;;;;;;;4995241;28;20037;-78
2023/03/30 09:21:29;;;;;;;9.13;1.58;;;;;;;;;;4978085;28;20018;-78
2023/03/30 09:23:56;;;;;;;5.55;1.60;;;;;;;;;;4994298;28;20516;-78
2023/03/30 09:26:24;;;;;;;3.90;1.42;;;;;;;;;;4995365;28;20038;-77
2023/03/30 09:28:56;;;;;;;5.60;1.58;;;;;;;;;;4996709;28;20057;-78
2023/03/30 09:31:43;;;;;;;7.93;1.98;;;;;;;;;;4997808;28;20478;-77
2023/03/30 09:34:30;;;;;;;9.25;2.15;;;;;;;;;;4997019;28;20043;-78
2023/03/30 09:36:56;;;;;;;9.73;1.75;;;;;;;;;;4998729;28;20101;-79
2023/03/30 09:39:28;;;;;;;6.90;1.80;;;;;;;;;;5002310;28;20473;-77
2023/03/30 09:42:03;;;;;;;5.93;1.55;;;;;;;;;;4998629;28;20105;-76
2023/03/30 09:44:31;;;;;;;3.72;1.40;;;;;;;;;;4997832;28;20091;-79
2023/03/30 09:46:57;;;;;;;4.10;1.33;;;;;;;;;;4996333;28;20113;-79
2023/03/30 09:49:23;;;;;;;6.88;1.42;;;;;;;;;;5006587;28;20013;-78
2023/03/30 09:51:52;;;;;;;3.30;1.50;;;;;;;;;;4977666;28;20462;-78
2023/03/30 09:54:18;;;;;;;11.95;2.40;;;;;;;;;;4998714;28;20110;-77
2023/03/30 09:56:50;;;;;;;2.45;1.30;;;;;;;;;;4997391;28;20497;-79
2023/03/30 09:59:31;;;;;;;4.13;1.60;;;;;;;;;;4999035;28;20129;-78
2023/03/30 10:02:14;;;;;;;3.53;1.33;;;;;;;;;;4993766;28;20045;-78
2023/03/30 10:04:52;;;;;;;6.18;1.75;;;;;;;;;;5002287;28;20038;-78
2023/03/30 10:07:21;;;;;;;4.00;1.73;;;;;;;;;;5006106;28;20052;-76
2023/03/30 10:09:46;;;;;;;10.27;1.92;;;;;;;;;;5004597;28;20402;-79
2023/03/30 10:12:12;;;;;;;10.20;1.92;;;;;;;;;;4998909;28;20037;-79
2023/03/30 10:14:37;;;;;;;5.15;1.80;;;;;;;;;;5000182;28;20058;-77
2023/03/30 10:17:03;;;;;;;7.82;2.08;;;;;;;;;;4999134;28;20069;-78
2023/03/30 10:19:28;;;;;;;8.73;1.90;;;;;;;;;;5002614;28;20116;-78
2023/03/30 10:21:56;;;;;;;2.85;1.20;;;;;;;;;;4997757;28;20700;-79
2023/03/30 10:24:22;;;;;;;8.10;4.03;;;;;;;;;;5001595;28;20117;-77
2023/03/30 10:26:52;;;;;;;6.35;1.50;;;;;;;;;;4995149;28;20034;-78
2023/03/30 10:29:18;;;;;;;8.38;2.15;;;;;;;;;;5000163;28;20044;-78
2023/03/30 10:31:48;;;;;;;3.15;1.20;;;;;;;;;;4992612;28;20032;-79
2023/03/30 10:34:27;;;;;;;4.30;1.20;;;;;;;;;;4993789;28;20081;-79
2023/03/30 10:36:53;;;;;;;4.97;1.60;;;;;;;;;;4984780;28;20034;-78
2023/03/30 10:39:28;;;;;;;5.75;1.13;;;;;;;;;;4992159;28;20088;-78
2023/03/30 10:41:53;;;;;;;5.30;1.42;;;;;;;;;;4986308;28;20033;-79
2023/03/30 10:44:23;;;;;;;6.03;1.38;;;;;;;;;;5000671;28;20113;-77
2023/03/30 10:46:49;;;;;;;6.30;1.45;;;;;;;;;;4991548;28;20525;-79
2023/03/30 10:49:26;;;;;;;8.57;1.85;;;;;;;;;;4998840;28;20527;-79
2023/03/30 10:52:04;;;;;;;6.25;1.50;;;;;;;;;;5000066;28;20370;-77
2023/03/30 10:55:02;;;;;;;4.10;1.90;;;;;;;;;;5001515;28;20037;-78
2023/03/30 10:57:38;;;;;;;4.10;1.90;;;;;;;;;;4986881;28;20130;-77
2023/03/30 11:00:08;;;;;;;3.55;1.48;;;;;;;;;;4999303;28;20393;-77
2023/03/30 11:02:54;;;;;;;4.32;1.75;;;;;;;;;;5002552;28;20122;-79
2023/03/30 11:05:21;;;;;;;3.30;1.60;;;;;;;;;;4990704;28;20069;-79
2023/03/30 11:07:59;;;;;;;2.28;1.50;;;;;;;;;;4996080;28;20155;-79
2023/03/30 11:10:30;;;;;;;2.00;1.40;;;;;;;;;;4998198;28;20034;-78
2023/03/30 11:13:16;;;;;;;3.15;2.13;;;;;;;;;;4992574;28;20043;-76
2023/03/30 11:15:51;;;;;;;3.40;2.42;;;;;;;;;;5002156;28;20066;-77
2023/03/30 11:18:35;;;;;;;4.72;2.70;;;;;;;;;;4999310;28;20161;-78
2023/03/30 11:21:01;;;;;;;2.95;2.30;;;;;;;;;;4990236;28;20261;-78
2023/03/30 11:23:43;;;;;;;2.75;1.70;;;;;;;;;;4993034;28;20105;-79
2023/03/30 11:26:11;;;;;;;3.67;1.95;;;;;;;;;;4975143;28;20516;-77
2023/03/30 11:28:36;;;;;;;2.80;1.70;;;;;;;;;;4992797;28;20052;-77
2023/03/30 11:31:03;;;;;;;3.17;1.70;;;;;;;;;;4999114;28;20029;-79
2023/03/30 11:33:35;;;;;;;2.60;1.40;;;;;;;;;;4994678;28;20081;-78
2023/03/30 11:36:04;;;;;;;2.35;1.85;;;;;;;;;;4981395;28;20566;-77
2023/03/30 11:38:29;;;;;;;2.78;1.98;;;;;;;;;;4995907;28;20568;-77
2023/03/30 11:41:05;;;;;;;2.53;1.70;;;;;;;;;;4998337;28;20072;-76
2023/03/30 11:43:30;;;;;;;2.65;1.50;;;;;;;;;;4978296;28;20050;-78
2023/03/30 11:46:04;;;;;;;3.08;1.50;;;;;;;;;;4965347;28;20084;-77
2023/03/30 11:48:45;;;;;;;2.53;1.73;;;;;;;;;;4993813;28;20109;-77
2023/03/30 11:51:17;;;;;;;4.25;1.73;;;;;;;;;;4997412;28;20030;-78
2023/03/30 11:53:53;;;;;;;4.88;1.80;;;;;;;;;;4982217;28;20095;-78
2023/03/30 11:56:22;;;;;;;2.78;1.67;;;;;;;;;;4997394;28;20046;-78
2023/03/30 11:59:03;;;;;;;3.58;2.05;;;;;;;;;;4978890;28;20038;-78
2023/03/30 12:01:32;;;;;;;10.02;2.03;;;;;;;;;;4975578;28;20520;-78
2023/03/30 12:04:02;;;;;;;3.08;1.90;;;;;;;;;;5001503;28;20037;-78
2023/03/30 12:06:36;;;;;;;7.38;2.00;;;;;;;;;;4996861;28;20038;-78
2023/03/30 12:09:03;;;;;;;3.88;2.00;;;;;;;;;;4987089;28;20034;-78
2023/03/30 12:11:34;;;;;;;4.97;2.20;;;;;;;;;;4991757;28;20080;-78
2023/03/30 12:14:00;;;;;;;5.82;2.03;;;;;;;;;;4990509;28;20034;-78
2023/03/30 12:16:45;;;;;;;4.03;2.03;;;;;;;;;;4987377;28;20044;-77
2023/03/30 12:19:24;;;;;;;9.18;2.30;;;;;;;;;;5003625;28;20091;-76
2023/03/30 12:22:08;;;;;;;8.57;2.72;;;;;;;;;;4988919;28;20121;-78
2023/03/30 12:24:37;;;;;;;4.72;1.75;;;;;;;;;;4990334;28;20133;-78
2023/03/30 12:27:03;;;;;;;6.10;2.03;;;;;;;;;;4978423;28;20041;-78
2023/03/30 12:29:43;;;;;;;10.30;2.17;;;;;;;;;;4995891;28;20035;-78
2023/03/30 12:32:18;;;;;;;7.53;2.10;;;;;;;;;;4995609;28;20093;-77
2023/03/30 12:34:44;;;;;;;7.70;2.42;;;;;;;;;;4986290;28;20066;-78
2023/03/30 12:37:15;;;;;;;14.05;2.83;;;;;;;;;;4974127;28;20066;-77
2023/03/30 12:39:47;;;;;;;4.05;2.42;;;;;;;;;;4995844;28;20034;-77
2023/03/30 12:42:24;;;;;;;8.70;2.80;;;;;;;;;;4974444;28;20052;-77
2023/03/30 12:44:50;;;;;;;9.70;3.38;;;;;;;;;;4991719;28;20034;-78
2023/03/30 12:47:45;;;;;;;10.27;2.60;;;;;;;;;;4991304;28;20033;-78
2023/03/30 12:50:14;;;;;;;8.95;3.03;;;;;;;;;;4977366;28;20074;-79
2023/03/30 12:53:00;;;;;;;7.22;3.03;;;;;;;;;;4990634;28;20043;-77
2023/03/30 12:55:26;;;;;;;10.23;2.95;;;;;;;;;;4967961;28;20505;-77
2023/03/30 12:57:54;;;;;;;13.57;3.05;;;;;;;;;;4987819;28;20121;-77
2023/03/30 13:00:35;;;;;;;7.07;2.40;;;;;;;;;;5004554;28;20041;-79
2023/03/30 13:03:10;;;;;;;7.25;2.28;;;;;;;;;;4994257;28;20034;-78
2023/03/30 13:05:38;;;;;;;4.28;2.30;;;;;;;;;;4988714;28;20568;-76
2023/03/30 13:08:04;;;;;;;9.60;2.90;;;;;;;;;;4987859;28;20371;-77
2023/03/30 13:10:30;;;;;;;4.60;2.60;;;;;;;;;;4989962;28;20025;-79
2023/03/30 13:12:56;;;;;;;3.80;2.38;;;;;;;;;;5007165;28;20552;-80
2023/03/30 13:15:31;;;;;;;5.13;2.70;;;;;;;;;;5008312;28;20042;-78
2023/03/30 13:17:57;;;;;;;3.75;2.50;;;;;;;;;;5008178;28;20109;-79
2023/03/30 13:20:28;;;;;;;7.15;2.40;;;;;;;;;;4997861;28;20022;-79
2023/03/30 13:23:00;;;;;;;4.70;2.78;;;;;;;;;;4990905;28;20407;-78
2023/03/30 13:25:36;;;;;;;5.28;2.90;;;;;;;;;;4982407;28;20046;-76
2023/03/30 13:28:02;;;;;;;4.63;2.70;;;;;;;;;;4989850;28;20038;-78
2023/03/30 13:30:28;;;;;;;7.28;3.50;;;;;;;;;;4987260;28;20037;-78
2023/03/30 13:32:53;;;;;;;7.55;2.97;;;;;;;;;;4998315;28;20121;-79
2023/03/30 13:35:29;;;;;;;10.43;3.13;;;;;;;;;;4997391;28;20125;-77
2023/03/30 13:37:55;;;;;;;5.30;3.42;;;;;;;;;;4997243;28;20038;-78
2023/03/30 13:40:22;;;;;;;8.90;3.70;;;;;;;;;;4998646;28;20582;-78
2023/03/30 13:42:57;;;;;;;10.48;3.30;;;;;;;;;;4997655;28;20038;-79
2023/03/30 13:45:34;;;;;;;9.07;3.22;;;;;;;;;;4993216;28;20405;-78
2023/03/30 13:48:29;;;;;;;5.43;2.85;;;;;;;;;;4999190;28;20100;-78
2023/03/30 13:50:56;;;;;;;8.57;3.20;;;;;;;;;;4996196;28;20563;-79
2023/03/30 13:53:21;;;;;;;9.00;3.25;;;;;;;;;;4999879;28;20061;-78
2023/03/30 13:55:47;;;;;;;10.07;3.85;;;;;;;;;;5003251;28;20057;-78
2023/03/30 13:58:28;;;;;;;9.75;3.20;;;;;;;;;;5000207;28;20090;-78
2023/03/30 14:00:55;;;;;;;9.10;3.60;;;;;;;;;;5003216;28;20718;-76
2023/03/30 14:03:28;;;;;;;4.75;2.70;;;;;;;;;;4987035;28;20516;-79
2023/03/30 14:05:56;;;;;;;6.47;3.38;;;;;;;;;;4997179;28;20042;-78
2023/03/30 14:08:22;;;;;;;9.48;3.58;;;;;;;;;;4988241;28;20504;-78
2023/03/30 14:10:48;;;;;;;6.65;3.00;;;;;;;;;;5002503;28;20161;-78
2023/03/30 14:13:14;;;;;;;;;;;;;;;;;;5004531;28;20030;-78
2023/03/30 14:15:39;;;;;;;10.18;3.15;;;;;;;;;;5028547;28;19920;-78
2023/03/30 14:18:05;;;;;;;12.70;3.47;;;;;;;;;;5004602;28;20079;-77
2023/03/30 14:20:40;;;;;;;8.10;3.15;;;;;;;;;;4995379;28;20045;-77
2023/03/30 14:23:05;;;;;;;5.85;3.13;;;;;;;;;;4992826;28;20030;-77
2023/03/30 14:25:31;;;;;;;8.93;3.60;;;;;;;;;;4993276;28;20037;-76
2023/03/30 14:28:26;;;;;;;12.52;3.60;;;;;;;;;;4992617;28;20045;-78
2023/03/30 14:30:53;;;;;;;7.90;3.30;;;;;;;;;;4993496;28;20042;-78
2023/03/30 14:33:18;;;;;;;8.60;3.50;;;;;;;;;;4993513;28;20536;-78
2023/03/30 14:35:45;;;;;;;10.85;3.80;;;;;;;;;;5025573;28;20042;-78
2023/03/30 14:38:15;;;;;;;9.65;3.05;;;;;;;;;;4977034;28;20046;-78
2023/03/30 14:40:40;;;;;;;5.00;3.10;;;;;;;;;;4976205;28;20115;-77
2023/03/30 14:43:09;;;;;;;12.55;3.60;;;;;;;;;;4992011;28;20081;-78
2023/03/30 14:45:36;;;;;;;9.23;3.30;;;;;;;;;;4992263;28;20030;-79
2023/03/30 14:48:02;;;;;;;10.75;3.00;;;;;;;;;;4977173;28;20030;-79
2023/03/30 14:50:27;;;;;;;8.82;3.08;;;;;;;;;;4993134;28;20034;-77
2023/03/30 14:52:53;;;;;;;6.78;3.47;;;;;;;;;;4991746;28;20041;-78
2023/03/30 14:55:20;;;;;;;7.70;3.75;;;;;;;;;;4993625;28;20025;-77
2023/03/30 14:57:45;;;;;;;11.18;3.13;;;;;;;;;;4992835;28;20034;-79
2023/03/30 15:00:19;;;;;;;9.63;3.05;;;;;;;;;;4991231;28;20077;-78
2023/03/30 15:02:45;;;;;;;8.68;3.47;;;;;;;;;;4990670;28;20042;-79
2023/03/30 15:05:10;;;;;;;;;;;;;;;;;;4992936;28;20030;-79
2023/03/30 15:07:36;;;;;;;6.78;3.40;;;;;;;;;;4992445;28;19937;-79
2023/03/30 15:10:01;;;;;;;6.47;3.63;;;;;;;;;;5001500;28;20550;-78